sensor_id;sensor_type;location;lat;lon;timestamp;P1;durP1;ratioP1;P2;durP2;ratioP2
71769;SDS011;66386;52.122;5.420;2023-03-20T00:01:58;6.57;;;3.63;;
71769;SDS011;66386;52.122;5.420;2023-03-20T00:04:24;13.85;;;4.13;;
71769;SDS011;66386;52.122;5.420;2023-03-20T00:06:51;7.28;;;4.00;;
71769;SDS011;66386;52.122;5.420;2023-03-20T00:09:17;10.40;;;4.40;;
71769;SDS011;66386;52.122;5.420;2023-03-20T00:11:47;11.10;;;5.03;;
71769;SDS011;66386;52.122;5.420;2023-03-20T00:14:17;12.25;;;4.72;;
71769;SDS011;66386;52.122;5.420;2023-03-20T00:16:46;12.00;;;4.63;;
71769;SDS011;66386;52.122;5.420;2023-03-20T00:19:14;10.20;;;5.25;;
71769;SDS011;66386;52.122;5.420;2023-03-20T00:21:48;11.87;;;5.60;;
71769;SDS011;66386;52.122;5.420;2023-03-20T00:24:16;13.15;;;6.25;;
71769;SDS011;66386;52.122;5.420;2023-03-20T00:26:43;9.45;;;5.25;;
71769;SDS011;66386;52.122;5.420;2023-03-20T00:29:18;16.88;;;7.68;;
71769;SDS011;66386;52.122;5.420;2023-03-20T00:31:47;19.52;;;7.00;;
71769;SDS011;66386;52.122;5.420;2023-03-20T00:34:14;18.07;;;6.70;;
71769;SDS011;66386;52.122;5.420;2023-03-20T00:36:42;14.63;;;6.80;;
71769;SDS011;66386;52.122;5.420;2023-03-20T00:39:09;13.85;;;6.57;;
71769;SDS011;66386;52.122;5.420;2023-03-20T00:44:14;20.17;;;7.43;;
71769;SDS011;66386;52.122;5.420;2023-03-20T00:46:45;15.43;;;7.10;;
71769;SDS011;66386;52.122;5.420;2023-03-20T00:49:15;18.90;;;6.95;;
71769;SDS011;66386;52.122;5.420;2023-03-20T00:51:42;16.25;;;6.43;;
71769;SDS011;66386;52.122;5.420;2023-03-20T00:54:13;15.05;;;7.68;;
71769;SDS011;66386;52.122;5.420;2023-03-20T00:56:42;16.85;;;7.10;;
71769;SDS011;66386;52.122;5.420;2023-03-20T00:59:20;17.57;;;7.03;;
71769;SDS011;66386;52.122;5.420;2023-03-20T01:01:50;18.33;;;7.53;;
71769;SDS011;66386;52.122;5.420;2023-03-20T01:04:17;12.98;;;6.93;;
71769;SDS011;66386;52.122;5.420;2023-03-20T01:06:45;17.55;;;7.18;;
71769;SDS011;66386;52.122;5.420;2023-03-20T01:09:12;16.02;;;7.80;;
71769;SDS011;66386;52.122;5.420;2023-03-20T01:11:38;16.00;;;7.00;;
71769;SDS011;66386;52.122;5.420;2023-03-20T01:14:09;14.52;;;6.70;;
71769;SDS011;66386;52.122;5.420;2023-03-20T01:16:39;12.45;;;6.32;;
71769;SDS011;66386;52.122;5.420;2023-03-20T01:19:06;11.45;;;5.75;;
71769;SDS011;66386;52.122;5.420;2023-03-20T01:21:34;13.93;;;6.07;;
71769;SDS011;66386;52.122;5.420;2023-03-20T01:24:02;12.80;;;5.53;;
71769;SDS011;66386;52.122;5.420;2023-03-20T01:26:33;12.70;;;6.10;;
71769;SDS011;66386;52.122;5.420;2023-03-20T01:29:02;12.20;;;5.70;;
71769;SDS011;66386;52.122;5.420;2023-03-20T01:31:30;9.95;;;5.57;;
71769;SDS011;66386;52.122;5.420;2023-03-20T01:33:56;9.82;;;5.47;;
71769;SDS011;66386;52.122;5.420;2023-03-20T01:36:23;12.70;;;5.97;;
71769;SDS011;66386;52.122;5.420;2023-03-20T01:38:54;11.38;;;5.25;;
71769;SDS011;66386;52.122;5.420;2023-03-20T01:41:22;11.10;;;5.18;;
71769;SDS011;66386;52.122;5.420;2023-03-20T01:43:51;9.38;;;4.93;;
71769;SDS011;66386;52.122;5.420;2023-03-20T01:46:19;7.50;;;4.47;;
71769;SDS011;66386;52.122;5.420;2023-03-20T01:51:16;11.20;;;4.45;;
71769;SDS011;66386;52.122;5.420;2023-03-20T01:53:49;8.32;;;4.07;;
71769;SDS011;66386;52.122;5.420;2023-03-20T01:56:22;9.23;;;3.88;;
71769;SDS011;66386;52.122;5.420;2023-03-20T01:58:52;6.80;;;3.63;;
71769;SDS011;66386;52.122;5.420;2023-03-20T02:01:23;11.13;;;4.00;;
71769;SDS011;66386;52.122;5.420;2023-03-20T02:03:51;6.85;;;3.60;;
71769;SDS011;66386;52.122;5.420;2023-03-20T02:06:18;9.35;;;3.78;;
71769;SDS011;66386;52.122;5.420;2023-03-20T02:08:48;9.30;;;3.50;;
71769;SDS011;66386;52.122;5.420;2023-03-20T02:11:17;5.93;;;2.83;;
71769;SDS011;66386;52.122;5.420;2023-03-20T02:13:48;4.80;;;2.93;;
71769;SDS011;66386;52.122;5.420;2023-03-20T02:16:17;4.55;;;3.08;;
71769;SDS011;66386;52.122;5.420;2023-03-20T02:18:46;4.70;;;2.70;;
71769;SDS011;66386;52.122;5.420;2023-03-20T02:38:42;8.40;;;3.05;;
71769;SDS011;66386;52.122;5.420;2023-03-20T02:41:35;9.93;;;3.67;;
71769;SDS011;66386;52.122;5.420;2023-03-20T02:46:57;9.85;;;3.97;;
71769;SDS011;66386;52.122;5.420;2023-03-20T02:49:49;9.05;;;4.53;;
71769;SDS011;66386;52.122;5.420;2023-03-20T02:52:47;10.98;;;4.25;;
71769;SDS011;66386;52.122;5.420;2023-03-20T02:55:27;13.07;;;4.10;;
71769;SDS011;66386;52.122;5.420;2023-03-20T02:58:12;8.73;;;3.83;;
71769;SDS011;66386;52.122;5.420;2023-03-20T03:00:41;8.63;;;3.67;;
71769;SDS011;66386;52.122;5.420;2023-03-20T03:03:17;8.85;;;4.15;;
71769;SDS011;66386;52.122;5.420;2023-03-20T03:05:51;11.90;;;3.63;;
71769;SDS011;66386;52.122;5.420;2023-03-20T03:08:21;10.23;;;3.97;;
71769;SDS011;66386;52.122;5.420;2023-03-20T03:10:56;10.77;;;4.00;;
71769;SDS011;66386;52.122;5.420;2023-03-20T03:13:28;9.50;;;3.75;;
71769;SDS011;66386;52.122;5.420;2023-03-20T03:16:09;8.60;;;3.40;;
71769;SDS011;66386;52.122;5.420;2023-03-20T03:18:39;9.57;;;4.63;;
71769;SDS011;66386;52.122;5.420;2023-03-20T03:21:08;13.30;;;5.30;;
71769;SDS011;66386;52.122;5.420;2023-03-20T03:23:41;13.00;;;4.88;;
71769;SDS011;66386;52.122;5.420;2023-03-20T03:26:12;17.10;;;5.18;;
71769;SDS011;66386;52.122;5.420;2023-03-20T03:28:45;13.27;;;4.97;;
71769;SDS011;66386;52.122;5.420;2023-03-20T03:31:16;19.58;;;6.13;;
71769;SDS011;66386;52.122;5.420;2023-03-20T03:33:45;17.87;;;7.07;;
71769;SDS011;66386;52.122;5.420;2023-03-20T03:47:16;15.83;;;6.63;;
71769;SDS011;66386;52.122;5.420;2023-03-20T03:49:49;21.65;;;8.27;;
71769;SDS011;66386;52.122;5.420;2023-03-20T03:52:22;17.65;;;7.53;;
71769;SDS011;66386;52.122;5.420;2023-03-20T03:54:51;15.23;;;7.22;;
71769;SDS011;66386;52.122;5.420;2023-03-20T03:57:30;16.25;;;7.40;;
71769;SDS011;66386;52.122;5.420;2023-03-20T04:00:02;19.83;;;7.27;;
71769;SDS011;66386;52.122;5.420;2023-03-20T04:02:31;15.57;;;7.22;;
71769;SDS011;66386;52.122;5.420;2023-03-20T04:04:59;19.63;;;6.35;;
71769;SDS011;66386;52.122;5.420;2023-03-20T04:07:28;18.13;;;7.30;;
71769;SDS011;66386;52.122;5.420;2023-03-20T04:09:55;19.15;;;7.80;;
71769;SDS011;66386;52.122;5.420;2023-03-20T04:12:32;20.60;;;7.23;;
71769;SDS011;66386;52.122;5.420;2023-03-20T04:14:59;21.27;;;6.78;;
71769;SDS011;66386;52.122;5.420;2023-03-20T04:17:28;17.67;;;7.10;;
71769;SDS011;66386;52.122;5.420;2023-03-20T04:19:55;20.27;;;8.27;;
71769;SDS011;66386;52.122;5.420;2023-03-20T04:22:22;21.15;;;7.95;;
71769;SDS011;66386;52.122;5.420;2023-03-20T04:24:49;15.00;;;7.27;;
71769;SDS011;66386;52.122;5.420;2023-03-20T04:27:16;16.73;;;7.78;;
71769;SDS011;66386;52.122;5.420;2023-03-20T04:29:43;19.98;;;7.70;;
71769;SDS011;66386;52.122;5.420;2023-03-20T04:32:09;17.08;;;6.78;;
71769;SDS011;66386;52.122;5.420;2023-03-20T04:34:36;20.50;;;8.32;;
71769;SDS011;66386;52.122;5.420;2023-03-20T04:37:03;22.20;;;7.20;;
71769;SDS011;66386;52.122;5.420;2023-03-20T04:39:32;16.55;;;7.47;;
71769;SDS011;66386;52.122;5.420;2023-03-20T04:41:59;22.95;;;8.20;;
71769;SDS011;66386;52.122;5.420;2023-03-20T04:44:26;22.50;;;7.97;;
71769;SDS011;66386;52.122;5.420;2023-03-20T04:46:52;16.00;;;8.00;;
71769;SDS011;66386;52.122;5.420;2023-03-20T04:49:19;16.40;;;8.17;;
71769;SDS011;66386;52.122;5.420;2023-03-20T04:51:45;19.52;;;8.65;;
71769;SDS011;66386;52.122;5.420;2023-03-20T04:54:11;19.33;;;8.80;;
71769;SDS011;66386;52.122;5.420;2023-03-20T04:56:38;18.42;;;9.07;;
71769;SDS011;66386;52.122;5.420;2023-03-20T04:59:05;17.77;;;8.52;;
71769;SDS011;66386;52.122;5.420;2023-03-20T05:01:31;19.87;;;9.37;;
71769;SDS011;66386;52.122;5.420;2023-03-20T05:03:58;20.52;;;8.60;;
71769;SDS011;66386;52.122;5.420;2023-03-20T05:06:27;16.60;;;8.52;;
71769;SDS011;66386;52.122;5.420;2023-03-20T05:08:53;21.38;;;9.15;;
71769;SDS011;66386;52.122;5.420;2023-03-20T05:11:20;20.60;;;8.32;;
71769;SDS011;66386;52.122;5.420;2023-03-20T05:13:46;19.13;;;9.20;;
71769;SDS011;66386;52.122;5.420;2023-03-20T05:16:13;17.08;;;8.88;;
71769;SDS011;66386;52.122;5.420;2023-03-20T05:18:39;17.02;;;9.43;;
71769;SDS011;66386;52.122;5.420;2023-03-20T05:21:06;17.67;;;8.18;;
71769;SDS011;66386;52.122;5.420;2023-03-20T05:23:33;16.95;;;8.98;;
71769;SDS011;66386;52.122;5.420;2023-03-20T05:25:59;18.23;;;8.10;;
71769;SDS011;66386;52.122;5.420;2023-03-20T05:28:26;19.20;;;8.98;;
71769;SDS011;66386;52.122;5.420;2023-03-20T05:30:53;16.83;;;9.02;;
71769;SDS011;66386;52.122;5.420;2023-03-20T05:33:20;21.55;;;9.38;;
71769;SDS011;66386;52.122;5.420;2023-03-20T05:35:47;18.65;;;8.98;;
71769;SDS011;66386;52.122;5.420;2023-03-20T05:38:13;18.07;;;8.87;;
71769;SDS011;66386;52.122;5.420;2023-03-20T05:40:40;17.33;;;9.85;;
71769;SDS011;66386;52.122;5.420;2023-03-20T05:43:07;17.90;;;9.00;;
71769;SDS011;66386;52.122;5.420;2023-03-20T05:45:33;17.38;;;8.35;;
71769;SDS011;66386;52.122;5.420;2023-03-20T05:48:00;20.92;;;8.98;;
71769;SDS011;66386;52.122;5.420;2023-03-20T05:50:27;16.53;;;9.17;;
71769;SDS011;66386;52.122;5.420;2023-03-20T05:52:53;14.35;;;7.80;;
71769;SDS011;66386;52.122;5.420;2023-03-20T05:55:20;15.98;;;8.07;;
71769;SDS011;66386;52.122;5.420;2023-03-20T05:57:48;16.17;;;8.70;;
71769;SDS011;66386;52.122;5.420;2023-03-20T06:00:15;16.95;;;8.43;;
71769;SDS011;66386;52.122;5.420;2023-03-20T06:02:42;15.00;;;8.33;;
71769;SDS011;66386;52.122;5.420;2023-03-20T06:05:12;13.32;;;7.85;;
71769;SDS011;66386;52.122;5.420;2023-03-20T06:07:38;18.00;;;8.45;;
71769;SDS011;66386;52.122;5.420;2023-03-20T06:10:05;15.20;;;8.27;;
71769;SDS011;66386;52.122;5.420;2023-03-20T06:12:32;16.77;;;8.48;;
71769;SDS011;66386;52.122;5.420;2023-03-20T06:14:58;17.33;;;9.00;;
71769;SDS011;66386;52.122;5.420;2023-03-20T06:17:25;15.45;;;7.82;;
71769;SDS011;66386;52.122;5.420;2023-03-20T06:19:52;13.65;;;7.70;;
71769;SDS011;66386;52.122;5.420;2023-03-20T06:22:19;14.50;;;8.40;;
71769;SDS011;66386;52.122;5.420;2023-03-20T06:24:45;15.55;;;7.85;;
71769;SDS011;66386;52.122;5.420;2023-03-20T06:27:12;14.23;;;8.10;;
71769;SDS011;66386;52.122;5.420;2023-03-20T06:29:38;13.13;;;7.60;;
71769;SDS011;66386;52.122;5.420;2023-03-20T06:32:08;14.05;;;7.82;;
71769;SDS011;66386;52.122;5.420;2023-03-20T06:34:35;14.70;;;7.13;;
71769;SDS011;66386;52.122;5.420;2023-03-20T06:37:02;14.50;;;7.53;;
71769;SDS011;66386;52.122;5.420;2023-03-20T06:39:29;14.30;;;7.40;;
71769;SDS011;66386;52.122;5.420;2023-03-20T06:41:55;13.80;;;7.95;;
71769;SDS011;66386;52.122;5.420;2023-03-20T06:44:22;11.27;;;6.85;;
71769;SDS011;66386;52.122;5.420;2023-03-20T06:46:48;16.40;;;7.70;;
71769;SDS011;66386;52.122;5.420;2023-03-20T06:49:15;14.00;;;7.60;;
71769;SDS011;66386;52.122;5.420;2023-03-20T06:51:42;12.77;;;7.37;;
71769;SDS011;66386;52.122;5.420;2023-03-20T06:54:08;17.25;;;7.82;;
71769;SDS011;66386;52.122;5.420;2023-03-20T06:56:34;15.57;;;8.77;;
71769;SDS011;66386;52.122;5.420;2023-03-20T06:59:01;13.07;;;6.93;;
71769;SDS011;66386;52.122;5.420;2023-03-20T07:01:27;12.43;;;8.02;;
71769;SDS011;66386;52.122;5.420;2023-03-20T07:03:54;11.00;;;7.47;;
71769;SDS011;66386;52.122;5.420;2023-03-20T07:06:21;15.27;;;7.68;;
71769;SDS011;66386;52.122;5.420;2023-03-20T07:08:48;16.25;;;7.50;;
71769;SDS011;66386;52.122;5.420;2023-03-20T07:11:14;14.65;;;7.55;;
71769;SDS011;66386;52.122;5.420;2023-03-20T07:13:41;12.30;;;7.40;;
71769;SDS011;66386;52.122;5.420;2023-03-20T07:16:08;12.77;;;7.50;;
71769;SDS011;66386;52.122;5.420;2023-03-20T07:18:35;15.35;;;7.22;;
71769;SDS011;66386;52.122;5.420;2023-03-20T07:21:03;13.05;;;7.03;;
71769;SDS011;66386;52.122;5.420;2023-03-20T07:23:31;18.92;;;7.30;;
71769;SDS011;66386;52.122;5.420;2023-03-20T07:25:59;10.65;;;7.07;;
71769;SDS011;66386;52.122;5.420;2023-03-20T07:28:26;12.40;;;7.10;;
71769;SDS011;66386;52.122;5.420;2023-03-20T07:30:52;12.95;;;7.28;;
71769;SDS011;66386;52.122;5.420;2023-03-20T07:33:20;14.93;;;7.13;;
71769;SDS011;66386;52.122;5.420;2023-03-20T07:35:50;13.43;;;7.00;;
71769;SDS011;66386;52.122;5.420;2023-03-20T07:38:18;14.00;;;6.78;;
71769;SDS011;66386;52.122;5.420;2023-03-20T07:40:45;13.40;;;6.63;;
71769;SDS011;66386;52.122;5.420;2023-03-20T07:43:16;19.05;;;6.43;;
71769;SDS011;66386;52.122;5.420;2023-03-20T07:45:43;12.02;;;6.97;;
71769;SDS011;66386;52.122;5.420;2023-03-20T07:48:10;12.82;;;6.18;;
71769;SDS011;66386;52.122;5.420;2023-03-20T07:50:37;17.77;;;6.95;;
71769;SDS011;66386;52.122;5.420;2023-03-20T07:53:03;14.73;;;6.27;;
71769;SDS011;66386;52.122;5.420;2023-03-20T07:55:29;9.40;;;6.20;;
71769;SDS011;66386;52.122;5.420;2023-03-20T07:57:56;12.20;;;6.40;;
71769;SDS011;66386;52.122;5.420;2023-03-20T08:00:22;17.73;;;6.95;;
71769;SDS011;66386;52.122;5.420;2023-03-20T08:02:52;14.27;;;6.63;;
71769;SDS011;66386;52.122;5.420;2023-03-20T08:05:19;14.23;;;6.20;;
71769;SDS011;66386;52.122;5.420;2023-03-20T08:07:45;10.70;;;6.18;;
71769;SDS011;66386;52.122;5.420;2023-03-20T08:10:14;12.27;;;5.78;;
71769;SDS011;66386;52.122;5.420;2023-03-20T08:12:41;11.48;;;5.85;;
71769;SDS011;66386;52.122;5.420;2023-03-20T08:15:08;12.70;;;5.50;;
71769;SDS011;66386;52.122;5.420;2023-03-20T08:17:35;13.33;;;5.07;;
71769;SDS011;66386;52.122;5.420;2023-03-20T08:20:01;11.52;;;5.88;;
71769;SDS011;66386;52.122;5.420;2023-03-20T08:22:28;10.30;;;4.63;;
71769;SDS011;66386;52.122;5.420;2023-03-20T08:24:55;9.30;;;4.60;;
71769;SDS011;66386;52.122;5.420;2023-03-20T08:27:21;9.45;;;4.60;;
71769;SDS011;66386;52.122;5.420;2023-03-20T08:29:48;10.10;;;5.20;;
71769;SDS011;66386;52.122;5.420;2023-03-20T08:32:14;12.05;;;5.20;;
71769;SDS011;66386;52.122;5.420;2023-03-20T08:34:41;13.10;;;5.50;;
71769;SDS011;66386;52.122;5.420;2023-03-20T08:37:07;9.48;;;5.05;;
71769;SDS011;66386;52.122;5.420;2023-03-20T08:39:35;10.00;;;5.18;;
71769;SDS011;66386;52.122;5.420;2023-03-20T08:42:01;9.33;;;4.63;;
71769;SDS011;66386;52.122;5.420;2023-03-20T08:44:27;9.88;;;4.63;;
71769;SDS011;66386;52.122;5.420;2023-03-20T08:46:54;9.27;;;4.30;;
71769;SDS011;66386;52.122;5.420;2023-03-20T08:49:21;9.82;;;4.63;;
71769;SDS011;66386;52.122;5.420;2023-03-20T08:51:48;8.55;;;4.20;;
71769;SDS011;66386;52.122;5.420;2023-03-20T08:54:14;12.60;;;4.80;;
71769;SDS011;66386;52.122;5.420;2023-03-20T08:57:02;8.23;;;4.15;;
71769;SDS011;66386;52.122;5.420;2023-03-20T08:59:28;10.23;;;3.90;;
71769;SDS011;66386;52.122;5.420;2023-03-20T09:01:56;10.50;;;3.80;;
71769;SDS011;66386;52.122;5.420;2023-03-20T09:04:23;7.53;;;4.20;;
71769;SDS011;66386;52.122;5.420;2023-03-20T09:06:49;14.98;;;5.35;;
71769;SDS011;66386;52.122;5.420;2023-03-20T09:09:16;9.45;;;3.75;;
71769;SDS011;66386;52.122;5.420;2023-03-20T09:11:45;12.02;;;4.72;;
71769;SDS011;66386;52.122;5.420;2023-03-20T09:14:11;8.47;;;3.80;;
71769;SDS011;66386;52.122;5.420;2023-03-20T09:16:38;10.20;;;3.90;;
71769;SDS011;66386;52.122;5.420;2023-03-20T09:19:04;9.23;;;4.68;;
71769;SDS011;66386;52.122;5.420;2023-03-20T09:21:31;7.72;;;3.88;;
71769;SDS011;66386;52.122;5.420;2023-03-20T09:23:57;10.45;;;3.70;;
71769;SDS011;66386;52.122;5.420;2023-03-20T09:26:23;10.43;;;3.77;;
71769;SDS011;66386;52.122;5.420;2023-03-20T09:28:50;8.00;;;3.42;;
71769;SDS011;66386;52.122;5.420;2023-03-20T09:31:16;9.70;;;3.97;;
71769;SDS011;66386;52.122;5.420;2023-03-20T09:33:43;7.93;;;3.55;;
71769;SDS011;66386;52.122;5.420;2023-03-20T09:36:09;10.15;;;3.83;;
71769;SDS011;66386;52.122;5.420;2023-03-20T09:38:36;10.17;;;3.80;;
71769;SDS011;66386;52.122;5.420;2023-03-20T09:41:03;8.88;;;3.30;;
71769;SDS011;66386;52.122;5.420;2023-03-20T09:43:36;8.68;;;3.42;;
71769;SDS011;66386;52.122;5.420;2023-03-20T09:46:35;9.73;;;3.38;;
71769;SDS011;66386;52.122;5.420;2023-03-20T09:49:27;10.00;;;3.17;;
71769;SDS011;66386;52.122;5.420;2023-03-20T09:52:03;9.67;;;3.40;;
71769;SDS011;66386;52.122;5.420;2023-03-20T09:54:42;10.15;;;3.17;;
71769;SDS011;66386;52.122;5.420;2023-03-20T09:57:21;7.28;;;3.05;;
71769;SDS011;66386;52.122;5.420;2023-03-20T09:59:49;7.18;;;2.75;;
71769;SDS011;66386;52.122;5.420;2023-03-20T10:02:23;7.32;;;3.17;;
71769;SDS011;66386;52.122;5.420;2023-03-20T10:05:13;8.43;;;3.33;;
71769;SDS011;66386;52.122;5.420;2023-03-20T10:07:45;5.97;;;2.78;;
71769;SDS011;66386;52.122;5.420;2023-03-20T10:10:13;7.57;;;3.05;;
71769;SDS011;66386;52.122;5.420;2023-03-20T10:12:46;8.48;;;2.97;;
71769;SDS011;66386;52.122;5.420;2023-03-20T10:21:00;4.55;;;2.33;;
71769;SDS011;66386;52.122;5.420;2023-03-20T10:23:48;6.18;;;2.83;;
71769;SDS011;66386;52.122;5.420;2023-03-20T10:26:45;4.32;;;2.17;;
71769;SDS011;66386;52.122;5.420;2023-03-20T10:35:09;6.57;;;2.55;;
71769;SDS011;66386;52.122;5.420;2023-03-20T10:37:51;7.28;;;2.67;;
71769;SDS011;66386;52.122;5.420;2023-03-20T10:40:40;6.75;;;2.58;;
71769;SDS011;66386;52.122;5.420;2023-03-20T10:43:13;9.25;;;3.08;;
71769;SDS011;66386;52.122;5.420;2023-03-20T10:45:44;8.03;;;2.70;;
71769;SDS011;66386;52.122;5.420;2023-03-20T10:48:22;7.65;;;2.50;;
71769;SDS011;66386;52.122;5.420;2023-03-20T10:50:53;8.40;;;2.55;;
71769;SDS011;66386;52.122;5.420;2023-03-20T10:56:05;7.90;;;3.30;;
71769;SDS011;66386;52.122;5.420;2023-03-20T10:58:36;5.23;;;2.33;;
71769;SDS011;66386;52.122;5.420;2023-03-20T11:01:05;6.32;;;2.90;;
71769;SDS011;66386;52.122;5.420;2023-03-20T11:03:32;8.13;;;3.70;;
71769;SDS011;66386;52.122;5.420;2023-03-20T11:06:02;9.10;;;3.38;;
71769;SDS011;66386;52.122;5.420;2023-03-20T11:08:51;6.53;;;2.65;;
71769;SDS011;66386;52.122;5.420;2023-03-20T11:11:22;9.80;;;3.80;;
71769;SDS011;66386;52.122;5.420;2023-03-20T11:13:50;9.88;;;3.90;;
71769;SDS011;66386;52.122;5.420;2023-03-20T11:18:48;9.05;;;4.18;;
71769;SDS011;66386;52.122;5.420;2023-03-20T11:21:19;8.30;;;3.78;;
71769;SDS011;66386;52.122;5.420;2023-03-20T11:23:53;12.40;;;4.10;;
71769;SDS011;66386;52.122;5.420;2023-03-20T11:26:31;9.48;;;3.67;;
71769;SDS011;66386;52.122;5.420;2023-03-20T11:29:01;8.48;;;4.28;;
71769;SDS011;66386;52.122;5.420;2023-03-20T11:31:42;9.90;;;4.18;;
71769;SDS011;66386;52.122;5.420;2023-03-20T11:36:44;8.27;;;4.60;;
71769;SDS011;66386;52.122;5.420;2023-03-20T11:39:35;12.52;;;5.32;;
71769;SDS011;66386;52.122;5.420;2023-03-20T11:42:04;8.57;;;4.85;;
71769;SDS011;66386;52.122;5.420;2023-03-20T11:44:55;9.85;;;4.63;;
71769;SDS011;66386;52.122;5.420;2023-03-20T11:47:31;10.20;;;5.45;;
71769;SDS011;66386;52.122;5.420;2023-03-20T11:50:01;12.10;;;5.17;;
71769;SDS011;66386;52.122;5.420;2023-03-20T11:52:32;7.03;;;4.80;;
71769;SDS011;66386;52.122;5.420;2023-03-20T11:55:03;10.27;;;5.53;;
71769;SDS011;66386;52.122;5.420;2023-03-20T11:57:40;10.38;;;5.25;;
71769;SDS011;66386;52.122;5.420;2023-03-20T12:00:15;15.00;;;5.88;;
71769;SDS011;66386;52.122;5.420;2023-03-20T12:02:47;12.97;;;5.83;;
71769;SDS011;66386;52.122;5.420;2023-03-20T12:05:19;14.93;;;5.95;;
71769;SDS011;66386;52.122;5.420;2023-03-20T12:08:00;12.73;;;6.03;;
71769;SDS011;66386;52.122;5.420;2023-03-20T12:10:45;10.93;;;6.18;;
71769;SDS011;66386;52.122;5.420;2023-03-20T12:13:21;17.85;;;6.13;;
71769;SDS011;66386;52.122;5.420;2023-03-20T12:15:54;16.00;;;6.47;;
71769;SDS011;66386;52.122;5.420;2023-03-20T12:21:16;9.52;;;6.15;;
71769;SDS011;66386;52.122;5.420;2023-03-20T12:23:55;12.38;;;5.78;;
71769;SDS011;66386;52.122;5.420;2023-03-20T12:26:34;11.25;;;6.55;;
71769;SDS011;66386;52.122;5.420;2023-03-20T12:29:09;14.80;;;6.00;;
71769;SDS011;66386;52.122;5.420;2023-03-20T12:36:48;16.02;;;6.85;;
71769;SDS011;66386;52.122;5.420;2023-03-20T12:39:19;13.65;;;7.65;;
71769;SDS011;66386;52.122;5.420;2023-03-20T12:45:56;10.93;;;6.70;;
71769;SDS011;66386;52.122;5.420;2023-03-20T12:48:15;12.13;;;6.78;;
71769;SDS011;66386;52.122;5.420;2023-03-20T13:01:19;11.23;;;6.85;;
71769;SDS011;66386;52.122;5.420;2023-03-20T13:06:53;10.25;;;6.28;;
71769;SDS011;66386;52.122;5.420;2023-03-20T13:14:42;15.57;;;7.75;;
71769;SDS011;66386;52.122;5.420;2023-03-20T13:17:23;12.75;;;7.45;;
71769;SDS011;66386;52.122;5.420;2023-03-20T13:20:01;14.45;;;6.60;;
71769;SDS011;66386;52.122;5.420;2023-03-20T13:26:01;13.90;;;6.82;;
71769;SDS011;66386;52.122;5.420;2023-03-20T13:28:50;10.32;;;6.13;;
71769;SDS011;66386;52.122;5.420;2023-03-20T13:31:41;14.32;;;6.85;;
71769;SDS011;66386;52.122;5.420;2023-03-20T13:36:58;14.70;;;7.37;;
71769;SDS011;66386;52.122;5.420;2023-03-20T13:42:27;11.15;;;7.18;;
71769;SDS011;66386;52.122;5.420;2023-03-20T13:45:00;11.95;;;6.93;;
71769;SDS011;66386;52.122;5.420;2023-03-20T13:47:32;11.95;;;7.28;;
71769;SDS011;66386;52.122;5.420;2023-03-20T13:50:07;9.63;;;7.23;;
71769;SDS011;66386;52.122;5.420;2023-03-20T13:53:26;13.32;;;7.40;;
71769;SDS011;66386;52.122;5.420;2023-03-20T14:01:39;13.88;;;7.13;;
71769;SDS011;66386;52.122;5.420;2023-03-20T14:04:12;15.23;;;6.67;;
71769;SDS011;66386;52.122;5.420;2023-03-20T14:06:49;13.82;;;8.05;;
71769;SDS011;66386;52.122;5.420;2023-03-20T14:09:25;13.43;;;7.60;;
71769;SDS011;66386;52.122;5.420;2023-03-20T14:12:10;15.18;;;8.82;;
71769;SDS011;66386;52.122;5.420;2023-03-20T14:14:39;14.20;;;7.75;;
71769;SDS011;66386;52.122;5.420;2023-03-20T14:17:16;16.73;;;7.73;;
71769;SDS011;66386;52.122;5.420;2023-03-20T14:19:46;17.48;;;7.50;;
71769;SDS011;66386;52.122;5.420;2023-03-20T14:22:21;18.75;;;8.50;;
71769;SDS011;66386;52.122;5.420;2023-03-20T14:24:56;18.20;;;7.43;;
71769;SDS011;66386;52.122;5.420;2023-03-20T14:27:26;16.58;;;8.38;;
71769;SDS011;66386;52.122;5.420;2023-03-20T14:30:43;12.27;;;7.13;;
71769;SDS011;66386;52.122;5.420;2023-03-20T14:35:43;13.48;;;8.00;;
71769;SDS011;66386;52.122;5.420;2023-03-20T14:46:19;14.25;;;7.57;;
71769;SDS011;66386;52.122;5.420;2023-03-20T14:49:01;13.00;;;7.30;;
71769;SDS011;66386;52.122;5.420;2023-03-20T14:51:44;15.27;;;8.60;;
71769;SDS011;66386;52.122;5.420;2023-03-20T14:56:50;13.53;;;7.77;;
71769;SDS011;66386;52.122;5.420;2023-03-20T14:59:21;16.30;;;7.88;;
71769;SDS011;66386;52.122;5.420;2023-03-20T15:04:22;15.27;;;7.38;;
71769;SDS011;66386;52.122;5.420;2023-03-20T15:06:55;13.55;;;7.75;;
71769;SDS011;66386;52.122;5.420;2023-03-20T15:09:25;16.07;;;7.80;;
71769;SDS011;66386;52.122;5.420;2023-03-20T15:11:53;11.88;;;7.40;;
71769;SDS011;66386;52.122;5.420;2023-03-20T15:14:33;10.70;;;7.40;;
71769;SDS011;66386;52.122;5.420;2023-03-20T15:17:15;11.57;;;7.30;;
71769;SDS011;66386;52.122;5.420;2023-03-20T15:22:54;12.20;;;7.60;;
71769;SDS011;66386;52.122;5.420;2023-03-20T15:25:27;10.00;;;6.75;;
71769;SDS011;66386;52.122;5.420;2023-03-20T15:27:57;18.20;;;8.20;;
71769;SDS011;66386;52.122;5.420;2023-03-20T15:30:24;14.07;;;7.40;;
71769;SDS011;66386;52.122;5.420;2023-03-20T15:32:52;13.95;;;7.57;;
71769;SDS011;66386;52.122;5.420;2023-03-20T15:35:21;10.97;;;6.17;;
71769;SDS011;66386;52.122;5.420;2023-03-20T15:37:51;11.48;;;6.72;;
71769;SDS011;66386;52.122;5.420;2023-03-20T15:40:23;9.48;;;7.28;;
71769;SDS011;66386;52.122;5.420;2023-03-20T15:43:12;10.35;;;6.45;;
71769;SDS011;66386;52.122;5.420;2023-03-20T15:45:44;8.95;;;6.22;;
71769;SDS011;66386;52.122;5.420;2023-03-20T15:48:15;12.97;;;6.90;;
71769;SDS011;66386;52.122;5.420;2023-03-20T15:50:48;8.82;;;6.15;;
71769;SDS011;66386;52.122;5.420;2023-03-20T15:53:21;10.13;;;6.82;;
71769;SDS011;66386;52.122;5.420;2023-03-20T15:56:02;8.15;;;6.45;;
71769;SDS011;66386;52.122;5.420;2023-03-20T15:58:44;10.75;;;6.28;;
71769;SDS011;66386;52.122;5.420;2023-03-20T16:01:22;11.33;;;6.30;;
71769;SDS011;66386;52.122;5.420;2023-03-20T16:03:51;8.75;;;6.72;;
71769;SDS011;66386;52.122;5.420;2023-03-20T16:06:21;14.80;;;7.20;;
71769;SDS011;66386;52.122;5.420;2023-03-20T16:08:57;12.73;;;7.57;;
71769;SDS011;66386;52.122;5.420;2023-03-20T16:11:37;17.02;;;7.93;;
71769;SDS011;66386;52.122;5.420;2023-03-20T16:14:06;14.93;;;7.53;;
71769;SDS011;66386;52.122;5.420;2023-03-20T16:16:38;16.45;;;8.07;;
71769;SDS011;66386;52.122;5.420;2023-03-20T16:19:05;10.57;;;7.63;;
71769;SDS011;66386;52.122;5.420;2023-03-20T16:21:34;15.68;;;8.07;;
71769;SDS011;66386;52.122;5.420;2023-03-20T16:24:14;14.32;;;8.80;;
71769;SDS011;66386;52.122;5.420;2023-03-20T16:26:45;19.67;;;9.77;;
71769;SDS011;66386;52.122;5.420;2023-03-20T16:29:15;16.35;;;8.80;;
71769;SDS011;66386;52.122;5.420;2023-03-20T16:31:51;15.30;;;8.75;;
71769;SDS011;66386;52.122;5.420;2023-03-20T16:34:22;17.83;;;9.23;;
71769;SDS011;66386;52.122;5.420;2023-03-20T16:36:52;17.70;;;9.60;;
71769;SDS011;66386;52.122;5.420;2023-03-20T16:39:23;14.73;;;8.77;;
71769;SDS011;66386;52.122;5.420;2023-03-20T16:44:34;18.80;;;8.85;;
71769;SDS011;66386;52.122;5.420;2023-03-20T16:47:13;12.73;;;8.70;;
71769;SDS011;66386;52.122;5.420;2023-03-20T16:49:49;15.13;;;8.73;;
71769;SDS011;66386;52.122;5.420;2023-03-20T16:52:22;18.57;;;8.83;;
71769;SDS011;66386;52.122;5.420;2023-03-20T16:54:55;15.43;;;9.20;;
71769;SDS011;66386;52.122;5.420;2023-03-20T16:57:22;15.15;;;8.45;;
71769;SDS011;66386;52.122;5.420;2023-03-20T16:59:51;15.68;;;9.18;;
71769;SDS011;66386;52.122;5.420;2023-03-20T17:02:24;17.88;;;9.50;;
71769;SDS011;66386;52.122;5.420;2023-03-20T17:04:56;20.90;;;9.30;;